Time;durP1;ratioP1;P1;durP2;ratioP2;P2;SDS_P1;SDS_P2;PMS_P1;PMS_P2;Temp;Humidity;BMP_temperature;BMP_pressure;BME280_temperature;BME280_humidity;BME280_pressure;Samples;Min_cycle;Max_cycle;Signal;HPM_P1;HPM_P2
2022/04/19 00:01:25;;;;;;;23.20;11.35;;;5.50;61.10;;;;;;5034455;28;20021;-17
2022/04/19 00:03:51;;;;;;;26.75;14.00;;;5.50;62.00;;;;;;5034415;28;20027;-15
2022/04/19 00:06:17;;;;;;;25.13;11.65;;;5.50;63.10;;;;;;5033732;28;20136;-15
2022/04/19 00:08:43;;;;;;;24.70;11.45;;;5.40;63.40;;;;;;5034374;28;20029;-16
2022/04/19 00:11:09;;;;;;;21.45;10.48;;;5.40;62.70;;;;;;5033923;28;20472;-14
2022/04/19 00:13:35;;;;;;;24.17;11.55;;;5.40;62.70;;;;;;5033989;28;20063;-16
2022/04/19 00:16:01;;;;;;;20.77;9.63;;;5.30;63.60;;;;;;5034250;28;20112;-14
2022/04/19 00:18:27;;;;;;;23.10;10.70;;;5.20;63.60;;;;;;5033569;28;20033;-16
2022/04/19 00:20:54;;;;;;;22.92;8.82;;;5.20;63.20;;;;;;5033848;28;20104;-14
2022/04/19 00:23:20;;;;;;;17.10;8.52;;;5.10;62.50;;;;;;5034235;28;20033;-15
2022/04/19 00:25:49;;;;;;;21.27;9.27;;;5.10;62.40;;;;;;5033723;28;20134;-14
2022/04/19 00:28:15;;;;;;;15.90;8.23;;;5.00;63.70;;;;;;5033628;28;20021;-14
2022/04/19 00:30:43;;;;;;;14.82;8.15;;;5.00;64.30;;;;;;5034115;28;20030;-14
2022/04/19 00:33:09;;;;;;;19.13;9.52;;;4.90;62.80;;;;;;5033501;28;20468;-17
2022/04/19 00:35:36;;;;;;;24.00;12.88;;;4.90;63.20;;;;;;5033926;28;20128;-17
2022/04/19 00:38:03;;;;;;;21.50;10.40;;;4.90;63.90;;;;;;5033598;28;20033;-14
2022/04/19 00:40:29;;;;;;;22.48;12.00;;;4.80;64.00;;;;;;5033794;28;20025;-16
2022/04/19 00:42:56;;;;;;;26.02;13.07;;;4.80;63.40;;;;;;5033468;28;20429;-15
2022/04/19 00:45:22;;;;;;;17.23;9.45;;;4.80;64.30;;;;;;5034267;28;20017;-14
2022/04/19 00:47:50;;;;;;;17.05;8.98;;;4.70;64.30;;;;;;5033355;28;20428;-16
2022/04/19 00:50:16;;;;;;;16.27;9.70;;;4.70;64.00;;;;;;5032947;28;20026;-17
2022/04/19 00:52:43;;;;;;;16.02;9.68;;;4.70;64.60;;;;;;5032983;28;20033;-16
2022/04/19 00:55:11;;;;;;;14.10;8.30;;;4.70;64.50;;;;;;5033250;28;20394;-14
2022/04/19 00:57:42;;;;;;;14.70;9.52;;;4.70;64.90;;;;;;5033310;28;20022;-14
2022/04/19 01:00:12;;;;;;;16.92;9.30;;;4.70;65.10;;;;;;5033489;28;20040;-14
2022/04/19 01:02:38;;;;;;;17.05;8.40;;;4.70;67.30;;;;;;5032989;28;20026;-14
2022/04/19 01:05:05;;;;;;;14.27;8.50;;;4.70;65.40;;;;;;5033247;28;20021;-17
2022/04/19 01:07:32;;;;;;;17.30;9.80;;;4.70;65.70;;;;;;5033142;28;20018;-14
2022/04/19 01:09:59;;;;;;;10.95;7.10;;;4.60;67.50;;;;;;5033442;28;20021;-13
2022/04/19 01:15:13;;;;;;;13.85;8.68;;;4.50;65.40;;;;;;5033424;28;20394;-16
2022/04/19 01:17:40;;;;;;;19.25;10.38;;;4.50;67.20;;;;;;5033331;28;20496;-14
2022/04/19 01:20:12;;;;;;;20.83;11.55;;;4.40;67.10;;;;;;5031731;28;20033;-14
2022/04/19 01:22:40;;;;;;;15.93;9.45;;;4.40;66.10;;;;;;5033145;28;20025;-17
2022/04/19 01:25:08;;;;;;;13.55;8.73;;;4.40;66.50;;;;;;5033203;28;20044;-17
2022/04/19 01:27:34;;;;;;;15.13;9.43;;;4.30;66.40;;;;;;5033222;28;20068;-13
2022/04/19 01:30:04;;;;;;;18.58;10.10;;;4.30;65.90;;;;;;5033228;28;20033;-17
2022/04/19 01:32:31;;;;;;;15.43;7.80;;;4.30;66.20;;;;;;5032977;28;20111;-14
2022/04/19 01:35:18;;;;;;;21.27;11.23;;;4.20;66.50;;;;;;5032821;28;20543;-16
2022/04/19 01:37:48;;;;;;;17.63;10.05;;;4.20;67.10;;;;;;5032865;28;20037;-15
2022/04/19 01:40:18;;;;;;;16.13;8.75;;;4.10;67.50;;;;;;5032726;28;20044;-16
2022/04/19 01:42:58;;;;;;;16.13;8.77;;;4.10;66.40;;;;;;5033392;28;20025;-15
2022/04/19 01:45:26;;;;;;;15.68;9.10;;;4.10;66.60;;;;;;5032824;28;20053;-16
2022/04/19 01:47:53;;;;;;;15.48;8.05;;;4.10;67.10;;;;;;5032759;28;20032;-16
2022/04/19 01:50:20;;;;;;;19.95;10.05;;;4.10;66.70;;;;;;5032660;28;20037;-14
2022/04/19 01:52:48;;;;;;;17.40;9.27;;;4.00;67.20;;;;;;5033204;28;20022;-14
2022/04/19 01:55:16;;;;;;;16.30;9.32;;;4.00;67.30;;;;;;5032680;28;20383;-14
2022/04/19 01:57:47;;;;;;;13.93;7.20;;;3.90;67.10;;;;;;5033018;28;20037;-17
2022/04/19 02:00:15;;;;;;;13.32;7.28;;;3.90;66.60;;;;;;5033591;28;20025;-14
2022/04/19 02:02:45;;;;;;;19.60;10.95;;;3.90;66.60;;;;;;5033794;28;20029;-11
2022/04/19 02:05:12;;;;;;;17.60;9.45;;;3.90;67.30;;;;;;5036746;28;20029;-12
2022/04/19 02:07:39;;;;;;;19.10;11.45;;;3.90;68.40;;;;;;5036754;28;20025;-16
2022/04/19 02:10:07;;;;;;;16.52;9.38;;;3.90;66.90;;;;;;5036267;28;20033;-14
2022/04/19 02:12:33;;;;;;;18.58;10.55;;;3.90;67.00;;;;;;5036120;28;20038;-14
2022/04/19 02:14:59;;;;;;;14.07;9.25;;;3.90;67.00;;;;;;5036229;28;20473;-16
2022/04/19 02:17:25;;;;;;;17.52;9.25;;;3.90;67.90;;;;;;5036801;28;20057;-12
2022/04/19 02:20:03;;;;;;;14.82;8.95;;;3.90;67.20;;;;;;5035997;28;20060;-16
2022/04/19 02:22:30;;;;;;;15.43;9.02;;;3.90;68.00;;;;;;5036215;28;20033;-17
2022/04/19 02:24:57;;;;;;;19.60;11.15;;;3.80;67.70;;;;;;5036257;28;20508;-15
2022/04/19 02:27:25;;;;;;;15.32;8.45;;;3.80;68.50;;;;;;5035973;28;20029;-16
2022/04/19 02:29:52;;;;;;;15.70;9.48;;;3.70;67.60;;;;;;5036318;28;20546;-15
2022/04/19 02:32:18;;;;;;;14.65;8.02;;;3.70;69.20;;;;;;5035591;28;20160;-16
2022/04/19 02:34:44;;;;;;;12.50;7.93;;;3.70;68.30;;;;;;5035836;28;20053;-15
2022/04/19 02:37:11;;;;;;;15.27;8.70;;;3.70;68.80;;;;;;5034560;28;20393;-17
2022/04/19 02:39:37;;;;;;;20.52;12.25;;;3.60;68.90;;;;;;5035754;28;20048;-17
2022/04/19 02:42:05;;;;;;;14.75;8.90;;;3.60;68.30;;;;;;5035783;28;20029;-17
2022/04/19 02:44:31;;;;;;;14.52;8.00;;;3.60;68.20;;;;;;5035477;28;20033;-15
2022/04/19 02:46:57;;;;;;;22.00;11.27;;;3.60;67.90;;;;;;5036069;28;20029;-17
2022/04/19 02:49:23;;;;;;;21.40;11.43;;;3.60;68.70;;;;;;5035473;28;20085;-15
2022/04/19 02:51:49;;;;;;;14.93;8.30;;;3.60;69.30;;;;;;5035723;28;20037;-17
2022/04/19 02:54:16;;;;;;;15.90;8.90;;;3.60;68.30;;;;;;5035258;28;20034;-17
2022/04/19 02:56:42;;;;;;;21.58;11.05;;;3.60;68.40;;;;;;5035743;28;20544;-16
2022/04/19 02:59:09;;;;;;;20.15;10.70;;;3.60;70.00;;;;;;5035722;28;20030;-16
2022/04/19 03:01:36;;;;;;;20.65;12.02;;;3.60;69.00;;;;;;5035680;28;20030;-15
2022/04/19 03:04:02;;;;;;;16.77;9.60;;;3.60;69.50;;;;;;5035525;28;20490;-16
2022/04/19 03:06:28;;;;;;;13.63;8.07;;;3.60;70.00;;;;;;5034939;28;20053;-17
2022/04/19 03:08:54;;;;;;;21.02;11.80;;;3.60;68.50;;;;;;5035822;28;20025;-17
2022/04/19 03:11:20;;;;;;;17.73;10.07;;;3.50;69.80;;;;;;5035327;28;20033;-16
2022/04/19 03:13:46;;;;;;;17.65;10.23;;;3.50;69.80;;;;;;5035075;28;20030;-16
2022/04/19 03:16:14;;;;;;;15.07;9.57;;;3.50;69.10;;;;;;5034719;28;20017;-13
2022/04/19 03:18:44;;;;;;;16.60;9.95;;;3.40;69.40;;;;;;5034964;28;20485;-16
2022/04/19 03:21:11;;;;;;;16.58;10.02;;;3.40;70.00;;;;;;5035037;28;20018;-15
2022/04/19 03:29:08;;;;;;;18.50;11.77;;;3.40;69.10;;;;;;5035194;28;20076;-17
2022/04/19 03:31:35;;;;;;;13.07;8.23;;;3.30;71.10;;;;;;5035100;28;20037;-16
2022/04/19 03:34:02;;;;;;;15.43;8.10;;;3.30;70.00;;;;;;5035299;28;20036;-16
2022/04/19 03:36:29;;;;;;;18.85;11.38;;;3.30;69.00;;;;;;5034810;28;20059;-16
2022/04/19 03:38:56;;;;;;;14.82;8.73;;;3.20;69.70;;;;;;5034908;28;20032;-16
2022/04/19 03:41:22;;;;;;;15.25;8.98;;;3.20;70.10;;;;;;5033449;28;20547;-16
2022/04/19 03:43:48;;;;;;;18.33;9.55;;;3.20;69.40;;;;;;5033564;28;20029;-17
2022/04/19 03:46:14;;;;;;;22.98;11.57;;;3.20;69.90;;;;;;5034409;28;20021;-17
2022/04/19 03:48:40;;;;;;;12.60;7.65;;;3.20;69.70;;;;;;5034310;28;20116;-16
2022/04/19 03:51:06;;;;;;;15.75;8.52;;;3.20;70.70;;;;;;5034366;28;20116;-13
2022/04/19 03:53:32;;;;;;;17.33;9.65;;;3.20;70.40;;;;;;5034699;28;20025;-17
2022/04/19 03:55:59;;;;;;;14.80;8.73;;;3.20;70.90;;;;;;5034288;28;20488;-16
2022/04/19 03:58:27;;;;;;;14.63;8.93;;;3.10;70.70;;;;;;5034426;28;20025;-17
2022/04/19 04:00:55;;;;;;;16.70;10.73;;;3.10;70.80;;;;;;5034735;28;20116;-16
2022/04/19 04:03:21;;;;;;;14.50;8.88;;;3.10;71.50;;;;;;5034196;28;20057;-17
2022/04/19 04:05:47;;;;;;;9.68;6.30;;;3.00;71.10;;;;;;5034125;28;20077;-17
2022/04/19 04:08:13;;;;;;;13.40;7.80;;;2.90;71.00;;;;;;5034193;28;20018;-14
2022/04/19 04:10:40;;;;;;;14.95;9.25;;;2.90;71.10;;;;;;5033985;28;20030;-15
2022/04/19 04:13:06;;;;;;;16.48;10.05;;;2.90;71.70;;;;;;5034333;28;20022;-16
2022/04/19 04:15:31;;;;;;;15.02;8.75;;;2.90;71.20;;;;;;5034221;28;20025;-17
2022/04/19 04:17:57;;;;;;;20.08;10.63;;;2.90;71.40;;;;;;5033825;28;20116;-17
2022/04/19 04:20:23;;;;;;;14.73;8.63;;;2.90;71.30;;;;;;5033838;28;20030;-15
2022/04/19 04:22:49;;;;;;;13.10;7.75;;;2.90;71.70;;;;;;5033840;28;20037;-16
2022/04/19 04:25:15;;;;;;;13.95;9.00;;;2.90;71.20;;;;;;5034075;28;20385;-16
2022/04/19 04:27:41;;;;;;;14.13;7.70;;;3.00;71.70;;;;;;5033231;28;20477;-18
2022/04/19 04:30:10;;;;;;;9.90;6.18;;;3.00;72.00;;;;;;5033704;28;20034;-16
2022/04/19 04:32:37;;;;;;;19.85;10.90;;;2.90;71.60;;;;;;5033700;28;20436;-17
2022/04/19 04:35:03;;;;;;;10.80;7.03;;;3.00;72.70;;;;;;5033539;28;20032;-16
2022/04/19 04:37:29;;;;;;;21.20;11.52;;;2.90;71.30;;;;;;5033859;28;20029;-17
2022/04/19 04:39:55;;;;;;;13.05;8.23;;;3.00;72.20;;;;;;5033872;28;20052;-15
2022/04/19 04:42:21;;;;;;;16.50;8.98;;;3.00;72.20;;;;;;5032028;28;20107;-16
2022/04/19 04:44:47;;;;;;;17.35;9.70;;;3.10;71.50;;;;;;5033476;28;20029;-15
2022/04/19 04:49:58;;;;;;;14.90;8.88;;;3.20;71.80;;;;;;5033655;28;20390;-16
2022/04/19 04:52:24;;;;;;;16.48;9.68;;;3.30;72.00;;;;;;5033139;28;20488;-16
2022/04/19 04:54:50;;;;;;;18.02;11.05;;;3.40;72.30;;;;;;5033339;28;20029;-16
2022/04/19 04:57:19;;;;;;;17.60;10.20;;;3.40;72.60;;;;;;5033343;28;20025;-16
2022/04/19 04:59:47;;;;;;;19.83;9.50;;;3.60;72.10;;;;;;5033525;28;20025;-16
2022/04/19 05:02:14;;;;;;;17.08;9.65;;;3.70;73.80;;;;;;5033415;28;20032;-21
2022/04/19 05:04:40;;;;;;;16.08;9.57;;;3.90;73.60;;;;;;5033128;28;20029;-17
2022/04/19 05:07:06;;;;;;;12.75;7.32;;;4.00;74.30;;;;;;5032967;28;20044;-15
2022/04/19 05:09:32;;;;;;;13.70;8.80;;;4.10;72.50;;;;;;5033455;28;20033;-17
2022/04/19 05:11:58;;;;;;;14.15;9.07;;;4.20;72.50;;;;;;5033017;28;20056;-15
2022/04/19 05:14:24;;;;;;;12.18;8.07;;;4.30;72.90;;;;;;5032722;28;20021;-17
2022/04/19 05:16:50;;;;;;;15.35;7.95;;;4.40;72.30;;;;;;5033108;28;20026;-16
2022/04/19 05:19:16;;;;;;;12.05;8.00;;;4.50;71.30;;;;;;5032997;28;20504;-15
2022/04/19 05:21:42;;;;;;;14.90;8.43;;;4.60;72.00;;;;;;5033220;28;20030;-16
2022/04/19 05:24:09;;;;;;;24.65;12.57;;;4.70;72.90;;;;;;5033124;28;20013;-17
2022/04/19 05:26:35;;;;;;;12.90;7.70;;;4.80;74.00;;;;;;5032735;28;20397;-17
2022/04/19 05:29:02;;;;;;;14.10;9.20;;;4.90;71.80;;;;;;5032903;28;20026;-16
2022/04/19 05:31:28;;;;;;;12.82;8.00;;;4.90;72.20;;;;;;5032849;28;20481;-15
2022/04/19 05:33:54;;;;;;;17.23;9.75;;;5.00;70.80;;;;;;5032854;28;20072;-12
2022/04/19 05:36:20;;;;;;;17.48;9.45;;;5.20;71.10;;;;;;5032957;28;20072;-14
2022/04/19 05:38:49;;;;;;;16.08;9.27;;;5.30;70.50;;;;;;5035488;28;20061;-14
2022/04/19 05:41:14;;;;;;;16.85;9.27;;;5.40;71.20;;;;;;5036898;28;20496;-14
2022/04/19 05:43:40;;;;;;;16.00;9.45;;;5.60;71.20;;;;;;5036841;28;20022;-13
2022/04/19 05:46:06;;;;;;;16.48;9.25;;;5.70;70.10;;;;;;5035594;28;20040;-14
2022/04/19 05:48:32;;;;;;;14.63;9.57;;;5.80;70.60;;;;;;5036540;28;20028;-15
2022/04/19 05:50:58;;;;;;;13.65;8.32;;;5.90;69.40;;;;;;5036813;28;20052;-13
2022/04/19 05:53:24;;;;;;;16.92;9.50;;;6.10;69.60;;;;;;5036636;28;20025;-15
2022/04/19 05:55:49;;;;;;;15.60;9.60;;;6.20;70.20;;;;;;5036746;28;20056;-15
2022/04/19 05:58:16;;;;;;;17.13;9.60;;;6.30;70.80;;;;;;5036346;28;20061;-13
2022/04/19 06:00:42;;;;;;;21.35;10.90;;;6.50;70.50;;;;;;5036509;28;20022;-15
2022/04/19 06:05:52;;;;;;;14.98;8.88;;;6.80;70.20;;;;;;5036517;28;20100;-15
2022/04/19 06:08:19;;;;;;;14.68;8.85;;;6.90;69.40;;;;;;5036256;28;20038;-14
2022/04/19 06:10:45;;;;;;;13.23;9.00;;;7.00;69.30;;;;;;5036882;28;20117;-15
2022/04/19 06:13:11;;;;;;;17.80;10.95;;;7.10;69.50;;;;;;5036526;28;20539;-13
2022/04/19 06:15:40;;;;;;;16.92;10.32;;;7.20;69.20;;;;;;5036539;28;20033;-14
2022/04/19 06:18:06;;;;;;;13.77;8.13;;;7.30;69.10;;;;;;5036487;28;20039;-14
2022/04/19 06:20:32;;;;;;;17.33;10.52;;;7.50;68.20;;;;;;5035976;28;20049;-13
2022/04/19 06:22:58;;;;;;;15.98;9.30;;;7.60;69.60;;;;;;5036350;28;20525;-15
2022/04/19 06:25:24;;;;;;;19.30;10.98;;;7.80;69.40;;;;;;5036014;28;20124;-14
2022/04/19 06:27:50;;;;;;;16.80;10.82;;;7.90;70.10;;;;;;5036017;28;20033;-16
2022/04/19 06:30:16;;;;;;;24.73;15.02;;;7.90;69.10;;;;;;5036041;28;20026;-15
2022/04/19 06:32:42;;;;;;;18.58;11.15;;;8.10;69.90;;;;;;5036485;28;20034;-12
2022/04/19 06:35:11;;;;;;;26.48;14.63;;;8.20;68.20;;;;;;5036116;28;20018;-15
2022/04/19 06:37:37;;;;;;;21.10;13.02;;;8.30;69.90;;;;;;5035839;28;20499;-14
2022/04/19 06:40:06;;;;;;;24.33;14.68;;;8.40;68.00;;;;;;5036093;28;20164;-14
2022/04/19 06:42:32;;;;;;;18.65;11.38;;;8.60;66.60;;;;;;5036351;28;20470;-14
2022/04/19 06:44:58;;;;;;;19.20;10.85;;;8.70;67.60;;;;;;5035704;28;20112;-14
2022/04/19 06:47:24;;;;;;;21.65;13.20;;;8.80;67.80;;;;;;5035969;28;20021;-15
2022/04/19 06:49:51;;;;;;;23.17;14.15;;;9.00;67.20;;;;;;5034416;28;20393;-15
2022/04/19 06:52:17;;;;;;;26.85;15.32;;;9.20;67.10;;;;;;5035481;28;20492;-16
2022/04/19 06:54:43;;;;;;;20.55;12.90;;;9.40;65.60;;;;;;5035515;28;20079;-15
2022/04/19 06:57:09;;;;;;;19.23;11.02;;;9.40;64.70;;;;;;5035815;28;20021;-15
2022/04/19 06:59:34;;;;;;;22.27;13.32;;;9.50;64.70;;;;;;5035814;28;20079;-15
2022/04/19 07:02:00;;;;;;;23.50;12.90;;;9.70;64.40;;;;;;5035430;28;20113;-15
2022/04/19 07:04:26;;;;;;;18.90;10.45;;;9.80;63.80;;;;;;5035594;28;20083;-15
2022/04/19 07:06:52;;;;;;;17.35;10.02;;;9.90;64.20;;;;;;5035117;28;20053;-16
2022/04/19 07:09:18;;;;;;;24.52;13.27;;;10.00;63.60;;;;;;5035577;28;20021;-15
2022/04/19 07:11:44;;;;;;;13.90;9.38;;;10.20;63.80;;;;;;5035121;28;20033;-14
2022/04/19 07:14:10;;;;;;;16.45;9.68;;;10.50;63.30;;;;;;5035479;28;20044;-14
2022/04/19 07:16:36;;;;;;;13.00;8.52;;;10.70;62.40;;;;;;5034891;28;20096;-15
2022/04/19 07:19:02;;;;;;;24.90;13.68;;;10.90;62.30;;;;;;5035009;28;20041;-16
2022/04/19 07:27:21;;;;;;;15.27;9.97;;;11.90;61.20;;;;;;5032893;28;20481;-15
2022/04/19 07:29:48;;;;;;;15.77;9.63;;;12.40;60.20;;;;;;5032880;28;20512;-14
2022/04/19 07:32:14;;;;;;;18.27;11.25;;;12.80;58.90;;;;;;5033522;28;20037;-15
2022/04/19 07:34:40;;;;;;;19.10;12.68;;;13.10;58.40;;;;;;5034935;28;20032;-15
2022/04/19 07:37:06;;;;;;;19.35;11.80;;;13.40;57.90;;;;;;5034720;28;20389;-15
2022/04/19 07:39:32;;;;;;;14.93;10.02;;;13.60;56.50;;;;;;5035040;28;20025;-15
2022/04/19 07:42:00;;;;;;;17.25;12.43;;;13.70;56.00;;;;;;5034646;28;20437;-15
2022/04/19 07:44:29;;;;;;;19.90;11.20;;;13.90;56.00;;;;;;5034720;28;20029;-13
2022/04/19 07:46:55;;;;;;;16.23;10.23;;;14.00;56.00;;;;;;5034595;28;20025;-15
2022/04/19 07:49:21;;;;;;;18.63;11.15;;;14.20;55.10;;;;;;5033547;28;20021;-15
2022/04/19 07:51:46;;;;;;;13.13;8.25;;;14.40;54.60;;;;;;5034712;28;20079;-14
2022/04/19 07:54:12;;;;;;;15.48;9.93;;;14.60;54.60;;;;;;5034751;28;20417;-16
2022/04/19 07:56:38;;;;;;;14.02;9.05;;;14.70;54.50;;;;;;5034488;28;20377;-15
2022/04/19 07:59:04;;;;;;;16.23;9.48;;;14.90;54.20;;;;;;5033101;28;20040;-16
2022/04/19 08:01:30;;;;;;;15.63;9.35;;;15.10;53.70;;;;;;5034396;28;20040;-15
2022/04/19 08:03:56;;;;;;;15.55;8.50;;;15.30;53.50;;;;;;5032927;28;20024;-15
2022/04/19 08:06:22;;;;;;;17.83;9.93;;;15.60;53.30;;;;;;5033892;28;20053;-15
2022/04/19 08:08:48;;;;;;;15.38;10.20;;;15.80;52.50;;;;;;5034736;28;20025;-15
2022/04/19 08:11:14;;;;;;;11.82;7.80;;;16.00;51.80;;;;;;5033983;28;20121;-15
2022/04/19 08:13:39;;;;;;;15.27;9.18;;;16.20;51.50;;;;;;5034025;28;20508;-13
2022/04/19 08:16:06;;;;;;;14.07;7.38;;;16.40;50.30;;;;;;5033956;28;20025;-15
2022/04/19 08:18:32;;;;;;;13.50;7.75;;;16.50;50.70;;;;;;5033804;28;20068;-14
2022/04/19 08:20:57;;;;;;;11.95;6.85;;;16.80;49.40;;;;;;5033744;28;20060;-14
2022/04/19 08:23:23;;;;;;;12.73;7.50;;;16.90;48.90;;;;;;5034188;28;20116;-15
2022/04/19 08:25:49;;;;;;;10.10;5.72;;;17.10;47.70;;;;;;5033893;28;20389;-14
2022/04/19 08:28:15;;;;;;;7.30;4.70;;;17.30;48.10;;;;;;5034241;28;20022;-14
2022/04/19 08:30:41;;;;;;;8.60;5.78;;;17.50;46.80;;;;;;5032455;28;20405;-15
2022/04/19 08:33:07;;;;;;;10.75;5.70;;;17.70;46.50;;;;;;5033626;28;20037;-16
2022/04/19 08:35:33;;;;;;;8.23;5.28;;;17.80;46.10;;;;;;5033829;28;20116;-15
2022/04/19 08:37:58;;;;;;;9.68;5.50;;;17.90;45.70;;;;;;5033796;28;20037;-15
2022/04/19 08:40:27;;;;;;;6.20;4.65;;;18.00;43.40;;;;;;5033477;28;20478;-15
2022/04/19 08:42:57;;;;;;;8.55;5.65;;;18.10;41.60;;;;;;5033503;28;20034;-15
2022/04/19 08:45:23;;;;;;;7.13;4.72;;;18.20;41.10;;;;;;5033506;28;20533;-15
2022/04/19 08:47:50;;;;;;;8.90;5.13;;;18.60;41.30;;;;;;5033691;28;20030;-15
2022/04/19 08:50:19;;;;;;;7.65;4.82;;;18.90;39.50;;;;;;5033411;28;20466;-15
2022/04/19 08:52:47;;;;;;;7.55;5.35;;;19.40;38.40;;;;;;5033636;28;20406;-15
2022/04/19 08:57:57;;;;;;;6.20;4.10;;;20.10;37.70;;;;;;5033742;28;20067;-15
2022/04/19 09:00:25;;;;;;;7.45;3.63;;;20.40;35.60;;;;;;5033090;28;20022;-14
2022/04/19 09:02:53;;;;;;;6.25;4.28;;;20.60;36.00;;;;;;5033198;28;20547;-15
2022/04/19 09:05:26;;;;;;;6.88;3.97;;;20.90;34.70;;;;;;5032861;28;20478;-15
2022/04/19 09:07:54;;;;;;;9.43;4.57;;;21.10;33.50;;;;;;5034141;28;20087;-14
2022/04/19 09:10:32;;;;;;;8.73;4.35;;;21.30;32.90;;;;;;5033118;28;20036;-13
2022/04/19 09:13:26;;;;;;;8.77;4.45;;;21.40;33.30;;;;;;5032752;28;20108;-14
2022/04/19 09:15:54;;;;;;;6.45;4.45;;;21.50;32.30;;;;;;5033140;28;20029;-15
2022/04/19 09:18:30;;;;;;;5.95;4.13;;;21.50;31.40;;;;;;5033230;28;20071;-14
2022/04/19 09:21:06;;;;;;;6.70;4.47;;;21.60;31.60;;;;;;5033179;28;20026;-14
2022/04/19 09:23:34;;;;;;;7.07;4.43;;;21.80;31.90;;;;;;5033340;28;20056;-14
2022/04/19 09:26:05;;;;;;;8.80;5.20;;;21.90;31.80;;;;;;5032955;28;20026;-14
2022/04/19 09:28:34;;;;;;;8.02;4.70;;;22.00;32.20;;;;;;5033118;28;20086;-14
2022/04/19 09:31:07;;;;;;;7.10;4.78;;;21.90;32.30;;;;;;5032898;28;20359;-15
2022/04/19 09:33:32;;;;;;;6.82;4.53;;;22.10;32.80;;;;;;5032986;28;20053;-15
2022/04/19 09:36:03;;;;;;;6.38;4.07;;;22.20;32.30;;;;;;5032771;28;20061;-14
2022/04/19 09:38:43;;;;;;;6.00;4.13;;;22.30;32.50;;;;;;5032636;28;20041;-14
2022/04/19 09:41:11;;;;;;;8.77;4.28;;;22.50;31.60;;;;;;5032783;28;20032;-14
2022/04/19 09:43:37;;;;;;;7.60;4.60;;;22.60;31.90;;;;;;5033138;28;20508;-14
2022/04/19 09:46:05;;;;;;;7.78;5.00;;;22.70;31.70;;;;;;5032806;28;20033;-14
2022/04/19 09:48:36;;;;;;;7.22;4.70;;;22.70;30.70;;;;;;5033157;28;20028;-14
2022/04/19 09:51:12;;;;;;;7.00;4.40;;;22.60;31.40;;;;;;5032950;28;20041;-14
2022/04/19 09:53:41;;;;;;;8.38;4.40;;;22.50;31.60;;;;;;5033007;28;20017;-14
2022/04/19 09:56:13;;;;;;;5.72;4.20;;;22.50;31.20;;;;;;5032739;28;20033;-15
2022/04/19 09:58:44;;;;;;;10.57;5.03;;;22.40;31.90;;;;;;5032704;28;20519;-15
2022/04/19 10:08:10;;;;;;;7.55;5.25;;;22.40;31.40;;;;;;5032739;28;20030;-15
2022/04/19 10:09:37;;;;;;;9.20;5.18;;;22.10;32.20;;;;;;5033097;28;20384;-14
2022/04/19 10:12:05;;;;;;;7.70;4.25;;;21.90;33.30;;;;;;5032693;28;20032;-14
2022/04/19 10:14:33;;;;;;;8.00;6.05;;;22.10;33.50;;;;;;5032367;28;20410;-14
2022/04/19 10:17:01;;;;;;;7.55;4.93;;;22.40;32.10;;;;;;5032780;28;20401;-15
2022/04/19 10:19:29;;;;;;;5.78;4.20;;;22.80;32.90;;;;;;5032402;28;20521;-15
2022/04/19 10:21:58;;;;;;;7.05;4.93;;;23.20;32.40;;;;;;5032479;28;20020;-15
2022/04/19 10:24:27;;;;;;;8.55;4.68;;;23.60;31.80;;;;;;5034110;28;20034;-14
2022/04/19 10:26:54;;;;;;;6.90;5.30;;;24.00;31.20;;;;;;5036363;28;20044;-15
2022/04/19 10:29:25;;;;;;;9.52;5.63;;;24.30;30.10;;;;;;5034824;28;20022;-15
2022/04/19 10:32:01;;;;;;;7.80;4.90;;;24.30;31.00;;;;;;5036132;28;20033;-14
2022/04/19 10:34:33;;;;;;;7.38;4.93;;;24.20;31.10;;;;;;5035655;28;20164;-15
2022/04/19 10:37:11;;;;;;;5.75;4.18;;;23.90;31.80;;;;;;5036110;28;20060;-15
2022/04/19 10:39:59;;;;;;;6.90;4.00;;;23.90;32.10;;;;;;5035810;28;20037;-15
2022/04/19 10:42:38;;;;;;;7.43;5.38;;;23.90;32.40;;;;;;5035623;28;20026;-15
2022/04/19 10:45:28;;;;;;;8.65;5.15;;;24.10;32.20;;;;;;5036071;28;20112;-14
2022/04/19 10:47:54;;;;;;;6.45;4.57;;;24.30;31.10;;;;;;5035716;28;20028;-12
2022/04/19 10:50:34;;;;;;;7.15;5.13;;;24.50;32.60;;;;;;5035311;28;20156;-15
2022/04/19 10:53:05;;;;;;;9.20;5.32;;;24.90;31.20;;;;;;5035588;28;20038;-15
2022/04/19 10:55:33;;;;;;;6.72;4.85;;;25.30;31.20;;;;;;5035905;28;20034;-15
2022/04/19 11:01:02;;;;;;;7.78;5.15;;;25.70;30.00;;;;;;5036403;28;20029;-15
2022/04/19 11:03:37;;;;;;;7.63;5.53;;;25.90;29.70;;;;;;5035784;28;20108;-15
2022/04/19 11:06:05;;;;;;;8.52;4.20;;;25.90;29.60;;;;;;5035238;28;20124;-15
2022/04/19 11:08:37;;;;;;;6.03;4.40;;;25.90;29.90;;;;;;5035165;28;20088;-14
2022/04/19 11:11:06;;;;;;;7.65;4.47;;;26.00;29.50;;;;;;5035498;28;20036;-14
2022/04/19 11:13:43;;;;;;;6.10;3.97;;;25.90;29.90;;;;;;5035157;28;20030;-14
2022/04/19 11:16:13;;;;;;;5.38;3.90;;;25.90;31.30;;;;;;5035530;28;20022;-15
2022/04/19 11:18:42;;;;;;;5.18;3.63;;;26.00;30.60;;;;;;5035933;28;20101;-14
2022/04/19 11:21:12;;;;;;;6.80;3.78;;;26.30;30.50;;;;;;5035533;28;20405;-15
2022/04/19 11:23:49;;;;;;;7.63;4.40;;;26.60;29.90;;;;;;5034966;28;20439;-14
2022/04/19 11:26:27;;;;;;;5.85;4.22;;;26.70;29.20;;;;;;5035023;28;20057;-15
2022/04/19 11:29:10;;;;;;;5.55;4.00;;;26.60;30.00;;;;;;5034992;28;20021;-14
2022/04/19 11:31:45;;;;;;;6.25;3.97;;;26.50;30.70;;;;;;5035005;28;20527;-14
2022/04/19 11:34:15;;;;;;;6.13;4.10;;;26.70;30.70;;;;;;5035004;28;20036;-15
2022/04/19 11:36:42;;;;;;;8.55;4.15;;;26.70;30.40;;;;;;5034492;28;20030;-14
2022/04/19 11:46:43;;;;;;;8.05;4.60;;;26.70;30.40;;;;;;5035363;28;20036;-14
2022/04/19 11:47:57;;;;;;;7.60;4.10;;;26.70;31.10;;;;;;5024332;28;20044;-14
2022/04/19 11:50:31;;;;;;;7.40;4.82;;;26.60;31.20;;;;;;5034303;28;20748;-15
2022/04/19 11:53:03;;;;;;;7.43;4.25;;;26.30;31.10;;;;;;5034462;28;20045;-14
2022/04/19 11:55:29;;;;;;;7.57;3.90;;;25.90;32.20;;;;;;5034402;28;20108;-14
2022/04/19 11:58:02;;;;;;;5.82;4.13;;;26.10;31.70;;;;;;5034400;28;20095;-14
2022/04/19 12:00:28;;;;;;;5.82;3.42;;;26.30;31.10;;;;;;5034085;28;20037;-14
2022/04/19 12:02:54;;;;;;;5.45;4.20;;;26.40;31.30;;;;;;5034504;28;20112;-14
2022/04/19 12:05:26;;;;;;;6.50;4.20;;;26.60;30.60;;;;;;5032654;28;20026;-15
2022/04/19 12:07:53;;;;;;;5.82;3.97;;;26.80;31.20;;;;;;5034574;28;20022;-14
2022/04/19 12:10:20;;;;;;;6.50;4.10;;;26.90;31.40;;;;;;5033963;28;20025;-14
2022/04/19 12:12:46;;;;;;;8.98;4.53;;;27.00;30.40;;;;;;5033987;28;20033;-14
2022/04/19 12:15:12;;;;;;;6.53;4.05;;;27.10;30.70;;;;;;5034830;28;20026;-15
2022/04/19 12:17:45;;;;;;;6.18;3.92;;;27.20;30.90;;;;;;5032853;28;20030;-15
2022/04/19 12:20:11;;;;;;;6.40;4.03;;;27.30;31.10;;;;;;5034493;28;20029;-15
2022/04/19 12:22:37;;;;;;;5.20;3.50;;;27.20;31.00;;;;;;5034053;28;20318;-15
2022/04/19 12:25:06;;;;;;;6.20;3.30;;;27.00;31.10;;;;;;5033858;28;20025;-14
2022/04/19 12:27:37;;;;;;;5.82;3.85;;;27.00;31.00;;;;;;5034640;28;20068;-14
2022/04/19 12:30:12;;;;;;;4.38;3.58;;;26.90;31.00;;;;;;5033641;28;20076;-15
2022/04/19 12:32:58;;;;;;;8.57;3.95;;;26.30;31.40;;;;;;5033837;28;20128;-14
2022/04/19 12:35:26;;;;;;;4.88;3.30;;;25.70;31.80;;;;;;5034106;28;20021;-14
2022/04/19 12:38:05;;;;;;;4.38;3.38;;;25.20;32.30;;;;;;5033597;28;20489;-14
2022/04/19 12:40:30;;;;;;;6.70;3.92;;;24.90;33.20;;;;;;5033651;28;20029;-14
2022/04/19 12:42:56;;;;;;;6.00;3.88;;;24.80;33.80;;;;;;5034176;28;20030;-15
2022/04/19 12:45:22;;;;;;;5.10;3.35;;;24.50;33.60;;;;;;5033817;28;20074;-14
2022/04/19 12:47:49;;;;;;;5.15;3.90;;;24.20;34.20;;;;;;5032774;28;20025;-14
2022/04/19 12:50:20;;;;;;;5.05;3.53;;;24.00;34.10;;;;;;5033323;28;20025;-14
2022/04/19 12:54:08;;;;;;;5.18;3.60;;;24.00;34.20;;;;;;5104882;27;20384;-13
2022/04/19 12:56:34;;;;;;;6.88;3.88;;;23.90;34.50;;;;;;5090421;28;20123;-11
2022/04/19 12:59:01;;;;;;;7.30;3.70;;;23.60;34.70;;;;;;5089285;28;20422;-12
2022/04/19 13:01:26;;;;;;;6.47;3.75;;;23.50;35.30;;;;;;5089327;28;20055;-12
2022/04/19 13:03:52;;;;;;;4.72;3.50;;;23.40;35.30;;;;;;5090802;28;20055;-11
2022/04/19 13:12:58;;;;;;;6.50;3.90;;;22.90;36.60;;;;;;5086602;28;20480;-13
2022/04/19 13:15:24;;;;;;;6.75;4.15;;;22.50;37.30;;;;;;5090599;28;20115;-11
2022/04/19 13:17:50;;;;;;;6.07;4.47;;;22.20;37.90;;;;;;5090547;28;20117;-12
2022/04/19 13:20:16;;;;;;;6.13;3.90;;;22.00;38.20;;;;;;5090189;28;20032;-12
2022/04/19 13:22:42;;;;;;;8.18;5.05;;;21.80;39.00;;;;;;5090852;28;20017;-12
2022/04/19 13:25:08;;;;;;;5.28;4.07;;;21.50;39.20;;;;;;5090435;28;20024;-12
2022/04/19 13:27:36;;;;;;;5.53;4.00;;;21.40;39.10;;;;;;5090439;28;20052;-12
2022/04/19 13:30:09;;;;;;;4.95;3.45;;;21.20;39.30;;;;;;5090624;28;20024;-11
2022/04/19 13:32:35;;;;;;;5.47;3.47;;;21.00;40.00;;;;;;5090164;28;20032;-12